createdAt,value
2019-03-17T00:00:04.102Z,0.696
2019-03-17T00:00:10.784Z,0.699
2019-03-17T00:00:20.668Z,0.702
2019-03-17T00:00:27.002Z,0.71
2019-03-17T00:00:34.583Z,0.722
2019-03-17T00:00:41.736Z,0.73
2019-03-17T00:00:48.418Z,0.739
2019-03-17T00:00:54.880Z,0.751
2019-03-17T00:01:03.039Z,0.763
2019-03-17T00:01:12.590Z,0.772
2019-03-17T00:01:19.403Z,0.772
2019-03-17T00:01:26.001Z,0.778
2019-03-17T00:01:34.313Z,0.781
2019-03-17T00:01:40.747Z,0.79
2019-03-17T00:01:58.187Z,0.793
2019-03-17T00:02:05.102Z,0.793
2019-03-17T00:02:11.622Z,0.8
2019-03-17T00:02:18.193Z,0.806
2019-03-17T00:02:24.773Z,0.812
2019-03-17T00:02:31.343Z,0.819
2019-03-17T00:02:41.164Z,0.825
2019-03-17T00:02:47.818Z,0.825
2019-03-17T00:02:55.897Z,0.822
2019-03-17T00:03:02.448Z,0.822
2019-03-17T00:03:09.019Z,0.825
2019-03-17T00:03:15.587Z,0.825
2019-03-17T00:03:23.242Z,0.835
2019-03-17T00:03:30.599Z,0.848
2019-03-17T00:03:40.159Z,0.855
2019-03-17T00:03:46.887Z,0.855
2019-03-17T00:03:54.292Z,0.855
2019-03-17T00:04:01.937Z,0.852
2019-03-17T00:04:11.129Z,0.862
2019-03-17T00:04:32.167Z,0.886
2019-03-17T00:04:38.674Z,0.893
2019-03-17T00:04:45.251Z,0.896
2019-03-17T00:04:51.796Z,0.896
2019-03-17T00:04:58.440Z,0.9
2019-03-17T00:05:05.010Z,0.907
2019-03-17T00:05:11.598Z,0.903
2019-03-17T00:05:18.148Z,0.9
2019-03-17T00:05:24.678Z,0.9
2019-03-17T00:05:31.346Z,0.9
2019-03-17T00:05:37.923Z,0.903
2019-03-17T00:05:44.861Z,0.903
2019-03-17T00:05:50.991Z,0.903
2019-03-17T00:05:58.331Z,0.903
2019-03-17T00:06:04.081Z,0.907
2019-03-17T00:06:13.882Z,0.925
2019-03-17T00:06:20.422Z,0.929
2019-03-17T00:06:26.978Z,0.925
2019-03-17T00:06:33.531Z,0.925
2019-03-17T00:06:40.122Z,0.929
2019-03-17T00:06:46.688Z,0.94
2019-03-17T00:06:53.248Z,0.947
2019-03-17T00:06:59.848Z,0.951
2019-03-17T00:07:06.388Z,0.951
2019-03-17T00:07:12.984Z,0.959
2019-03-17T00:07:19.597Z,0.959
2019-03-17T00:07:26.148Z,0.97
2019-03-17T00:07:32.780Z,0.974
2019-03-17T00:07:39.278Z,0.986
2019-03-17T00:07:45.827Z,0.986
2019-03-17T00:07:52.411Z,0.982
2019-03-17T00:07:59.004Z,0.982
2019-03-17T00:08:05.534Z,0.978
2019-03-17T00:08:12.242Z,0.974
2019-03-17T00:08:18.671Z,0.97
2019-03-17T00:08:25.258Z,0.978
2019-03-17T00:08:31.783Z,0.978
2019-03-17T00:08:38.387Z,0.982
2019-03-17T00:08:44.872Z,0.978
2019-03-17T00:08:51.489Z,0.974
2019-03-17T00:08:58.055Z,0.97
2019-03-17T00:09:04.607Z,0.97
2019-03-17T00:09:12.313Z,0.986
2019-03-17T00:09:19.346Z,0.993
2019-03-17T00:09:27.092Z,0.997
2019-03-17T00:09:34.277Z,1.017
2019-03-17T00:09:40.692Z,1.03
2019-03-17T00:09:47.279Z,1.038
2019-03-17T00:09:54.249Z,1.042
2019-03-17T00:10:00.922Z,1.05
2019-03-17T00:10:15.340Z,1.05
2019-03-17T00:10:23.169Z,1.034
2019-03-17T00:10:29.762Z,1.042
2019-03-17T00:10:36.330Z,1.046
2019-03-17T00:10:42.906Z,1.042
2019-03-17T00:10:52.867Z,1.034
2019-03-17T00:10:59.284Z,1.03
2019-03-17T00:11:05.824Z,1.022
2019-03-17T00:11:12.821Z,1.017
2019-03-17T00:11:19.077Z,1.022
2019-03-17T00:11:25.574Z,1.034
2019-03-17T00:11:35.323Z,1.046
2019-03-17T00:11:41.906Z,1.042
2019-03-17T00:11:48.510Z,1.038
2019-03-17T00:11:55.147Z,1.042
2019-03-17T00:12:01.650Z,1.042
2019-03-17T00:12:08.116Z,1.038
2019-03-17T00:12:14.668Z,1.046
2019-03-17T00:12:21.209Z,1.055
2019-03-17T00:12:27.865Z,1.063
2019-03-17T00:12:37.520Z,1.067
2019-03-17T00:12:44.123Z,1.067
2019-03-17T00:12:50.755Z,1.067
2019-03-17T00:12:57.285Z,1.063
2019-03-17T00:13:03.801Z,1.076
2019-03-17T00:13:10.484Z,1.08
2019-03-17T00:13:18.141Z,1.093
2019-03-17T00:13:25.078Z,1.098
2019-03-17T00:13:31.661Z,1.107
2019-03-17T00:13:38.204Z,1.111
2019-03-17T00:13:44.765Z,1.12
2019-03-17T00:13:51.320Z,1.125
2019-03-17T00:13:57.898Z,1.134
2019-03-17T00:14:04.582Z,1.134
2019-03-17T00:14:11.253Z,1.134
2019-03-17T00:14:18.676Z,1.129
2019-03-17T00:14:25.809Z,1.12
2019-03-17T00:14:32.281Z,1.116
2019-03-17T00:14:38.874Z,1.111
2019-03-17T00:14:45.439Z,1.107
2019-03-17T00:15:06.859Z,1.098
2019-03-17T00:15:17.783Z,1.102
2019-03-17T00:15:24.421Z,1.107
2019-03-17T00:15:30.934Z,1.098
2019-03-17T00:15:37.526Z,1.089
2019-03-17T00:15:44.063Z,1.093
2019-03-17T00:15:50.629Z,1.093
2019-03-17T00:15:57.295Z,1.102
2019-03-17T00:16:03.761Z,1.093
2019-03-17T00:16:10.312Z,1.089
2019-03-17T00:16:16.858Z,1.089
2019-03-17T00:16:26.612Z,1.089
2019-03-17T00:16:33.194Z,1.08
2019-03-17T00:16:39.746Z,1.076
2019-03-17T00:16:46.325Z,1.067
2019-03-17T00:16:52.881Z,1.067
2019-03-17T00:16:59.491Z,1.076
2019-03-17T00:17:06.140Z,1.085
2019-03-17T00:17:16.954Z,1.098
2019-03-17T00:17:25.427Z,1.107
2019-03-17T00:17:32.169Z,1.116
2019-03-17T00:17:42.276Z,1.116
2019-03-17T00:17:48.533Z,1.107
2019-03-17T00:17:58.113Z,1.102
2019-03-17T00:18:04.971Z,1.111
2019-03-17T00:18:11.449Z,1.129
2019-03-17T00:18:17.996Z,1.143
2019-03-17T00:18:24.616Z,1.152
2019-03-17T00:18:33.837Z,1.147
2019-03-17T00:18:40.950Z,1.138
2019-03-17T00:18:47.510Z,1.129
2019-03-17T00:18:54.072Z,1.12
2019-03-17T00:19:00.644Z,1.111
2019-03-17T00:19:07.446Z,1.089
2019-03-17T00:19:13.771Z,1.08
2019-03-17T00:19:20.358Z,1.08
2019-03-17T00:19:28.154Z,1.089
2019-03-17T00:19:35.152Z,1.093
2019-03-17T00:19:41.799Z,1.102
2019-03-17T00:19:48.262Z,1.107
2019-03-17T00:19:54.861Z,1.111
2019-03-17T00:20:02.442Z,1.12
2019-03-17T00:20:11.004Z,1.12
2019-03-17T00:20:20.279Z,1.129
2019-03-17T00:20:25.952Z,1.129
2019-03-17T00:20:32.515Z,1.125
2019-03-17T00:20:39.325Z,1.134
2019-03-17T00:20:45.672Z,1.129
2019-03-17T00:20:54.847Z,1.134
2019-03-17T00:21:01.996Z,1.147
2019-03-17T00:21:08.521Z,1.161
2019-03-17T00:21:15.090Z,1.171
2019-03-17T00:21:21.978Z,1.18
2019-03-17T00:21:28.430Z,1.19
2019-03-17T00:21:34.891Z,1.185
2019-03-17T00:21:41.368Z,1.18
2019-03-17T00:21:48.231Z,1.19
2019-03-17T00:21:56.088Z,1.205
2019-03-17T00:22:02.698Z,1.21
2019-03-17T00:22:10.932Z,1.225
2019-03-17T00:22:17.561Z,1.235
2019-03-17T00:22:27.157Z,1.25
2019-03-17T00:22:38.462Z,1.22
2019-03-17T00:22:53.766Z,1.19
2019-03-17T00:23:03.748Z,1.176
2019-03-17T00:23:13.965Z,1.152
2019-03-17T00:23:26.252Z,1.152
2019-03-17T00:23:32.246Z,1.147
2019-03-17T00:23:38.756Z,1.152
2019-03-17T00:23:45.241Z,1.152
2019-03-17T00:23:51.787Z,1.143
2019-03-17T00:23:58.356Z,1.143
2019-03-17T00:24:05.348Z,1.143
2019-03-17T00:24:11.552Z,1.143
2019-03-17T00:24:18.077Z,1.152
2019-03-17T00:24:24.631Z,1.161
2019-03-17T00:24:31.206Z,1.157
2019-03-17T00:24:37.838Z,1.161
2019-03-17T00:24:44.435Z,1.171
2019-03-17T00:24:50.949Z,1.176
2019-03-17T00:25:10.637Z,1.195
2019-03-17T00:25:16.862Z,1.205
2019-03-17T00:25:23.725Z,1.205
2019-03-17T00:25:30.020Z,1.2
2019-03-17T00:25:37.574Z,1.2
2019-03-17T00:25:44.744Z,1.2
2019-03-17T00:25:51.367Z,1.19
2019-03-17T00:25:57.882Z,1.18
2019-03-17T00:26:04.460Z,1.157
2019-03-17T00:26:11.115Z,1.143
2019-03-17T00:26:17.603Z,1.134
2019-03-17T00:26:25.890Z,1.143
2019-03-17T00:26:33.926Z,1.143
2019-03-17T00:26:40.501Z,1.129
2019-03-17T00:26:47.067Z,1.12
2019-03-17T00:26:53.681Z,1.111
2019-03-17T00:27:00.227Z,1.102
2019-03-17T00:27:06.788Z,1.102
2019-03-17T00:27:13.402Z,1.093
2019-03-17T00:27:20.000Z,1.089
2019-03-17T00:27:26.524Z,1.093
2019-03-17T00:27:34.092Z,1.093
2019-03-17T00:27:41.351Z,1.08
2019-03-17T00:27:47.900Z,1.072
2019-03-17T00:27:54.403Z,1.072
2019-03-17T00:28:01.036Z,1.076
2019-03-17T00:28:07.621Z,1.076
2019-03-17T00:28:14.081Z,1.072
2019-03-17T00:28:20.627Z,1.072
2019-03-17T00:28:28.324Z,1.067
2019-03-17T00:28:35.503Z,1.059
2019-03-17T00:28:44.689Z,1.059
2019-03-17T00:28:51.750Z,1.05
2019-03-17T00:28:58.391Z,1.05
2019-03-17T00:29:05.156Z,1.055
2019-03-17T00:29:11.560Z,1.072
2019-03-17T00:29:19.103Z,1.076
2019-03-17T00:29:26.278Z,1.089
2019-03-17T00:29:33.150Z,1.08
2019-03-17T00:29:39.465Z,1.072
2019-03-17T00:29:46.051Z,1.076
2019-03-17T00:29:52.617Z,1.08
2019-03-17T00:29:59.096Z,1.089
2019-03-17T00:30:05.681Z,1.085
2019-03-17T00:30:15.561Z,1.08
2019-03-17T00:30:21.990Z,1.076
2019-03-17T00:30:28.555Z,1.089
2019-03-17T00:30:35.281Z,1.08
2019-03-17T00:30:44.955Z,1.085
2019-03-17T00:30:51.475Z,1.08
2019-03-17T00:30:58.042Z,1.08
2019-03-17T00:31:04.618Z,1.085
2019-03-17T00:31:24.664Z,1.067
2019-03-17T00:31:30.552Z,1.063
2019-03-17T00:31:38.486Z,1.055
2019-03-17T00:31:45.310Z,1.063
2019-03-17T00:31:52.597Z,1.076
2019-03-17T00:31:58.589Z,1.089
2019-03-17T00:32:05.041Z,1.098
2019-03-17T00:32:11.632Z,1.111
2019-03-17T00:32:18.229Z,1.107
2019-03-17T00:32:24.751Z,1.102
2019-03-17T00:32:31.329Z,1.098
2019-03-17T00:32:37.996Z,1.093
2019-03-17T00:32:44.620Z,1.08
2019-03-17T00:32:51.208Z,1.076
2019-03-17T00:32:57.677Z,1.063
2019-03-17T00:33:04.175Z,1.067
2019-03-17T00:33:10.741Z,1.072
2019-03-17T00:33:17.284Z,1.08
2019-03-17T00:33:23.831Z,1.093
2019-03-17T00:33:30.636Z,1.107
2019-03-17T00:33:38.079Z,1.125
2019-03-17T00:33:45.147Z,1.138
2019-03-17T00:33:51.723Z,1.143
2019-03-17T00:33:58.349Z,1.134
2019-03-17T00:34:05.077Z,1.129
2019-03-17T00:34:11.455Z,1.125
2019-03-17T00:34:18.124Z,1.116
2019-03-17T00:34:24.610Z,1.111
2019-03-17T00:34:44.786Z,1.12
2019-03-17T00:34:52.181Z,1.12
2019-03-17T00:34:58.707Z,1.107
2019-03-17T00:35:05.343Z,1.102
2019-03-17T00:35:14.836Z,1.093
2019-03-17T00:35:21.620Z,1.085
2019-03-17T00:35:28.148Z,1.076
2019-03-17T00:35:34.886Z,1.067
2019-03-17T00:35:41.304Z,1.067
2019-03-17T00:35:47.849Z,1.085
2019-03-17T00:35:55.437Z,1.093
2019-03-17T00:36:02.596Z,1.089
2019-03-17T00:36:09.425Z,1.08
2019-03-17T00:36:15.735Z,1.093
2019-03-17T00:36:22.301Z,1.098
2019-03-17T00:36:28.839Z,1.093
2019-03-17T00:36:35.429Z,1.093
2019-03-17T00:36:41.984Z,1.089
2019-03-17T00:36:48.575Z,1.098
2019-03-17T00:36:55.130Z,1.107
2019-03-17T00:37:01.686Z,1.111
2019-03-17T00:37:08.254Z,1.102
2019-03-17T00:37:14.831Z,1.098
2019-03-17T00:37:21.400Z,1.089
2019-03-17T00:37:28.009Z,1.102
2019-03-17T00:37:34.542Z,1.111
2019-03-17T00:37:41.100Z,1.111
2019-03-17T00:37:47.667Z,1.111
2019-03-17T00:37:54.220Z,1.116
2019-03-17T00:38:02.717Z,1.125
2019-03-17T00:38:08.964Z,1.138
2019-03-17T00:38:16.560Z,1.157
2019-03-17T00:38:23.713Z,1.166
2019-03-17T00:38:30.323Z,1.161
2019-03-17T00:38:36.868Z,1.171
2019-03-17T00:38:43.446Z,1.185
2019-03-17T00:38:50.029Z,1.195
2019-03-17T00:38:56.555Z,1.195
2019-03-17T00:39:03.130Z,1.19
2019-03-17T00:39:11.289Z,1.171
2019-03-17T00:39:17.816Z,1.161
2019-03-17T00:39:24.407Z,1.157
2019-03-17T00:39:30.985Z,1.157
2019-03-17T00:39:37.538Z,1.157
2019-03-17T00:39:44.118Z,1.166
2019-03-17T00:39:50.701Z,1.161
2019-03-17T00:39:57.292Z,1.152
2019-03-17T00:40:03.875Z,1.152
2019-03-17T00:40:13.435Z,1.152
2019-03-17T00:40:20.197Z,1.157
2019-03-17T00:40:26.769Z,1.157
2019-03-17T00:40:33.366Z,1.157
2019-03-17T00:40:40.072Z,1.161
2019-03-17T00:40:46.483Z,1.157
2019-03-17T00:40:53.298Z,1.157
2019-03-17T00:40:59.642Z,1.147
2019-03-17T00:41:07.835Z,1.138
2019-03-17T00:41:14.468Z,1.134
2019-03-17T00:41:24.172Z,1.134
2019-03-17T00:41:32.037Z,1.138
2019-03-17T00:41:38.818Z,1.138
2019-03-17T00:41:45.555Z,1.143
2019-03-17T00:41:52.028Z,1.138
2019-03-17T00:41:58.552Z,1.129
2019-03-17T00:42:05.140Z,1.134
2019-03-17T00:42:11.729Z,1.147
2019-03-17T00:42:18.310Z,1.147
2019-03-17T00:42:26.473Z,1.161
2019-03-17T00:42:33.440Z,1.157
2019-03-17T00:42:39.562Z,1.157
2019-03-17T00:42:46.122Z,1.147
2019-03-17T00:42:52.711Z,1.143
2019-03-17T00:42:59.308Z,1.129
2019-03-17T00:43:05.864Z,1.125
2019-03-17T00:43:12.475Z,1.12
2019-03-17T00:43:19.037Z,1.111
2019-03-17T00:43:25.582Z,1.116
2019-03-17T00:43:32.136Z,1.125
2019-03-17T00:43:38.788Z,1.125
2019-03-17T00:43:45.302Z,1.125
2019-03-17T00:43:51.889Z,1.143
2019-03-17T00:43:58.425Z,1.134
2019-03-17T00:44:04.981Z,1.134
2019-03-17T00:44:11.538Z,1.143
2019-03-17T00:44:18.358Z,1.134
2019-03-17T00:44:24.712Z,1.125
2019-03-17T00:44:31.393Z,1.12
2019-03-17T00:44:37.898Z,1.12
2019-03-17T00:44:44.441Z,1.116
2019-03-17T00:44:51.030Z,1.107
2019-03-17T00:44:57.584Z,1.098
2019-03-17T00:45:04.164Z,1.107
2019-03-17T00:45:13.796Z,1.125
2019-03-17T00:45:20.531Z,1.143
2019-03-17T00:45:27.083Z,1.152
2019-03-17T00:45:33.620Z,1.161
2019-03-17T00:45:40.215Z,1.157
2019-03-17T00:45:47.034Z,1.157
2019-03-17T00:45:54.972Z,1.171
2019-03-17T00:46:01.567Z,1.171
2019-03-17T00:46:08.110Z,1.161
2019-03-17T00:46:14.657Z,1.152
2019-03-17T00:46:21.211Z,1.143
2019-03-17T00:46:27.779Z,1.134
2019-03-17T00:46:34.347Z,1.129
2019-03-17T00:46:41.012Z,1.125
2019-03-17T00:46:47.578Z,1.129
2019-03-17T00:46:54.033Z,1.125
2019-03-17T00:47:00.572Z,1.125
2019-03-17T00:47:07.213Z,1.143
2019-03-17T00:47:16.879Z,1.161
2019-03-17T00:47:23.454Z,1.161
2019-03-17T00:47:30.006Z,1.152
2019-03-17T00:47:36.607Z,1.147
2019-03-17T00:47:43.134Z,1.147
2019-03-17T00:47:49.689Z,1.147
2019-03-17T00:47:56.401Z,1.152
2019-03-17T00:48:03.209Z,1.138
2019-03-17T00:48:09.489Z,1.147
2019-03-17T00:48:16.092Z,1.166
2019-03-17T00:48:25.755Z,1.176
2019-03-17T00:48:32.272Z,1.195
2019-03-17T00:48:38.849Z,1.2
2019-03-17T00:48:45.385Z,1.2
2019-03-17T00:48:51.977Z,1.19
2019-03-17T00:48:58.591Z,1.18
2019-03-17T00:49:05.228Z,1.18
2019-03-17T00:49:11.782Z,1.185
2019-03-17T00:49:18.290Z,1.19
2019-03-17T00:49:24.903Z,1.18
2019-03-17T00:49:31.513Z,1.176
2019-03-17T00:49:38.040Z,1.176
2019-03-17T00:49:44.575Z,1.171
2019-03-17T00:49:51.135Z,1.161
2019-03-17T00:49:57.712Z,1.147
2019-03-17T00:50:04.269Z,1.143
2019-03-17T00:50:13.859Z,1.138
2019-03-17T00:50:20.703Z,1.138
2019-03-17T00:50:27.393Z,1.138
2019-03-17T00:50:33.797Z,1.147
2019-03-17T00:50:40.428Z,1.161
2019-03-17T00:50:49.398Z,1.147
2019-03-17T00:50:55.123Z,1.143
2019-03-17T00:51:01.673Z,1.134
2019-03-17T00:51:08.304Z,1.125
2019-03-17T00:51:14.817Z,1.129
2019-03-17T00:51:21.415Z,1.12
2019-03-17T00:51:27.957Z,1.116
2019-03-17T00:51:34.566Z,1.111
2019-03-17T00:51:42.469Z,1.107
2019-03-17T00:51:51.819Z,1.107
2019-03-17T00:51:59.112Z,1.107
2019-03-17T00:52:05.768Z,1.111
2019-03-17T00:52:12.543Z,1.125
2019-03-17T00:52:18.793Z,1.138
2019-03-17T00:52:29.642Z,1.129
2019-03-17T00:52:36.755Z,1.12
2019-03-17T00:52:43.343Z,1.107
2019-03-17T00:52:49.982Z,1.107
2019-03-17T00:52:56.473Z,1.107
2019-03-17T00:53:03.029Z,1.111
2019-03-17T00:53:09.584Z,1.102
2019-03-17T00:53:16.149Z,1.093
2019-03-17T00:53:22.874Z,1.098
2019-03-17T00:53:29.567Z,1.102
2019-03-17T00:53:35.927Z,1.102
2019-03-17T00:53:42.482Z,1.111
2019-03-17T00:53:49.086Z,1.116
2019-03-17T00:53:55.670Z,1.107
2019-03-17T00:54:02.250Z,1.111
2019-03-17T00:54:12.011Z,1.111
2019-03-17T00:54:18.527Z,1.111
2019-03-17T00:54:25.235Z,1.12
2019-03-17T00:54:31.768Z,1.12
2019-03-17T00:54:38.234Z,1.134
2019-03-17T00:54:44.824Z,1.129
2019-03-17T00:54:53.180Z,1.116
2019-03-17T00:54:59.668Z,1.111
2019-03-17T00:55:06.364Z,1.107
2019-03-17T00:55:12.882Z,1.102
2019-03-17T00:55:19.862Z,1.102
2019-03-17T00:55:25.825Z,1.098
2019-03-17T00:55:32.362Z,1.107
2019-03-17T00:55:39.135Z,1.107
2019-03-17T00:55:45.614Z,1.111
2019-03-17T00:55:52.067Z,1.116
2019-03-17T00:55:58.599Z,1.111
2019-03-17T00:56:05.998Z,1.12
2019-03-17T00:56:15.306Z,1.125
2019-03-17T00:56:21.501Z,1.129
2019-03-17T00:56:28.112Z,1.125
2019-03-17T00:56:34.670Z,1.116
2019-03-17T00:56:41.267Z,1.116
2019-03-17T00:56:49.133Z,1.116
2019-03-17T00:56:57.137Z,1.116
2019-03-17T00:57:04.163Z,1.111
2019-03-17T00:57:10.779Z,1.107
2019-03-17T00:57:17.314Z,1.107
2019-03-17T00:57:25.133Z,1.102
2019-03-17T00:57:32.029Z,1.107
2019-03-17T00:57:38.633Z,1.102
2019-03-17T00:57:45.367Z,1.098
2019-03-17T00:57:51.754Z,1.102
2019-03-17T00:58:00.182Z,1.102
2019-03-17T00:58:06.463Z,1.102
2019-03-17T00:58:13.185Z,1.098
2019-03-17T00:58:19.637Z,1.111
2019-03-17T00:58:26.219Z,1.129
2019-03-17T00:58:32.765Z,1.147
2019-03-17T00:58:39.324Z,1.161
2019-03-17T00:58:45.890Z,1.176
2019-03-17T00:58:52.608Z,1.19
2019-03-17T00:59:00.207Z,1.195
2019-03-17T00:59:07.353Z,1.19
2019-03-17T00:59:15.496Z,1.19
2019-03-17T00:59:21.987Z,1.18
2019-03-17T00:59:35.907Z,1.171
2019-03-17T00:59:43.377Z,1.18
2019-03-17T00:59:49.632Z,1.185
2019-03-17T00:59:56.318Z,1.176
2019-03-17T01:00:02.812Z,1.171
2019-03-17T01:00:13.981Z,1.166
2019-03-17T01:00:20.775Z,1.171
2019-03-17T01:00:27.310Z,1.176
2019-03-17T01:00:33.985Z,1.19
2019-03-17T01:00:40.664Z,1.195
2019-03-17T01:00:47.232Z,1.19
2019-03-17T01:00:53.860Z,1.19
2019-03-17T01:01:00.148Z,1.18
2019-03-17T01:01:06.709Z,1.18
2019-03-17T01:01:14.387Z,1.176
2019-03-17T01:01:21.532Z,1.166
2019-03-17T01:01:28.003Z,1.161
2019-03-17T01:01:34.578Z,1.161
2019-03-17T01:01:42.764Z,1.166
2019-03-17T01:01:49.307Z,1.171
2019-03-17T01:01:55.891Z,1.171
2019-03-17T01:02:02.492Z,1.166
2019-03-17T01:02:09.068Z,1.161
2019-03-17T01:02:15.656Z,1.161
2019-03-17T01:02:22.247Z,1.166
2019-03-17T01:02:32.037Z,1.171
2019-03-17T01:02:38.521Z,1.185
2019-03-17T01:02:45.307Z,1.195
2019-03-17T01:02:51.862Z,1.215
2019-03-17T01:02:58.241Z,1.225
2019-03-17T01:03:04.915Z,1.235
2019-03-17T01:03:16.385Z,1.265
2019-03-17T01:03:29.903Z,1.297
2019-03-17T01:03:37.337Z,1.308
2019-03-17T01:03:44.133Z,1.319
2019-03-17T01:03:50.590Z,1.33
2019-03-17T01:03:57.125Z,1.335
2019-03-17T01:04:03.581Z,1.347
2019-03-17T01:04:10.173Z,1.347
2019-03-17T01:04:19.454Z,1.358
2019-03-17T01:04:27.464Z,1.335
2019-03-17T01:04:34.625Z,1.324
2019-03-17T01:04:41.272Z,1.335
2019-03-17T01:04:56.865Z,1.358
2019-03-17T01:05:03.914Z,1.375
2019-03-17T01:05:14.410Z,1.398
2019-03-17T01:05:20.426Z,1.422
2019-03-17T01:05:26.801Z,1.434
2019-03-17T01:05:33.364Z,1.453
2019-03-17T01:05:39.921Z,1.471
2019-03-17T01:05:46.577Z,1.49
2019-03-17T01:05:53.082Z,1.503
2019-03-17T01:05:59.584Z,1.516
2019-03-17T01:06:09.365Z,1.536
2019-03-17T01:06:15.985Z,1.549
2019-03-17T01:06:22.715Z,1.563
2019-03-17T01:06:29.086Z,1.57
2019-03-17T01:06:35.655Z,1.576
2019-03-17T01:06:42.670Z,1.583
2019-03-17T01:06:48.829Z,1.583
2019-03-17T01:06:55.393Z,1.556
2019-03-17T01:07:01.939Z,1.523
2019-03-17T01:07:08.495Z,1.516
2019-03-17T01:07:15.097Z,1.523
2019-03-17T01:07:21.640Z,1.497
2019-03-17T01:07:28.199Z,1.503
2019-03-17T01:07:35.008Z,1.497
2019-03-17T01:07:44.513Z,1.478
2019-03-17T01:07:51.091Z,1.484
2019-03-17T01:07:57.666Z,1.465
2019-03-17T01:08:04.292Z,1.44
2019-03-17T01:08:11.012Z,1.428
2019-03-17T01:08:18.296Z,1.434
2019-03-17T01:08:25.455Z,1.446
2019-03-17T01:08:32.050Z,1.459
2019-03-17T01:08:38.637Z,1.459
2019-03-17T01:08:45.184Z,1.459
2019-03-17T01:08:51.982Z,1.453
2019-03-17T01:08:58.452Z,1.453
2019-03-17T01:09:04.879Z,1.422
2019-03-17T01:09:12.619Z,1.434
2019-03-17T01:09:19.674Z,1.446
2019-03-17T01:09:27.211Z,1.453
2019-03-17T01:09:34.657Z,1.459
2019-03-17T01:09:40.952Z,1.459
2019-03-17T01:09:47.517Z,1.459
2019-03-17T01:09:54.102Z,1.422
2019-03-17T01:10:00.782Z,1.416
2019-03-17T01:10:11.207Z,1.422
2019-03-17T01:10:17.055Z,1.422
2019-03-17T01:10:23.987Z,1.44
2019-03-17T01:10:30.840Z,1.453
2019-03-17T01:10:39.314Z,1.465
2019-03-17T01:10:47.238Z,1.478
2019-03-17T01:10:55.418Z,1.478
2019-03-17T01:11:03.187Z,1.471
2019-03-17T01:11:11.872Z,1.465
2019-03-17T01:11:19.547Z,1.465
2019-03-17T01:11:29.507Z,1.478
2019-03-17T01:11:38.469Z,1.49
2019-03-17T01:11:46.268Z,1.503
2019-03-17T01:11:55.044Z,1.503
2019-03-17T01:12:02.610Z,1.484
2019-03-17T01:12:12.076Z,1.465
2019-03-17T01:12:21.340Z,1.428
2019-03-17T01:12:29.919Z,1.41
2019-03-17T01:12:38.534Z,1.387
2019-03-17T01:12:47.606Z,1.364
2019-03-17T01:12:59.196Z,1.364
2019-03-17T01:13:06.099Z,1.358
2019-03-17T01:13:17.695Z,1.347
2019-03-17T01:13:27.529Z,1.33
2019-03-17T01:13:36.948Z,1.341
2019-03-17T01:13:46.616Z,1.358
2019-03-17T01:13:58.080Z,1.381
2019-03-17T01:14:11.310Z,1.404
2019-03-17T01:14:22.686Z,1.428
2019-03-17T01:14:32.581Z,1.459
2019-03-17T01:14:44.665Z,1.471
2019-03-17T01:14:54.139Z,1.44
2019-03-17T01:15:00.737Z,1.428
2019-03-17T01:15:11.206Z,1.41
2019-03-17T01:15:17.063Z,1.392
2019-03-17T01:15:23.601Z,1.404
2019-03-17T01:15:30.355Z,1.422
2019-03-17T01:15:36.792Z,1.434
2019-03-17T01:15:44.341Z,1.416
2019-03-17T01:15:51.568Z,1.398
2019-03-17T01:15:58.092Z,1.392
2019-03-17T01:16:04.620Z,1.404
2019-03-17T01:16:11.218Z,1.422
2019-03-17T01:16:17.780Z,1.434
2019-03-17T01:16:24.396Z,1.453
2019-03-17T01:16:30.992Z,1.465
2019-03-17T01:16:37.467Z,1.465
2019-03-17T01:16:43.973Z,1.459
2019-03-17T01:16:53.749Z,1.428
2019-03-17T01:17:00.301Z,1.416
2019-03-17T01:17:06.865Z,1.404
2019-03-17T01:17:13.415Z,1.387
2019-03-17T01:17:20.019Z,1.369
2019-03-17T01:17:26.582Z,1.369
2019-03-17T01:17:33.482Z,1.387
2019-03-17T01:17:39.771Z,1.392
2019-03-17T01:17:46.287Z,1.41
2019-03-17T01:17:52.989Z,1.41
2019-03-17T01:18:00.016Z,1.428
2019-03-17T01:18:07.634Z,1.446
2019-03-17T01:18:14.190Z,1.446
2019-03-17T01:18:20.775Z,1.434
2019-03-17T01:18:27.537Z,1.422
2019-03-17T01:18:34.290Z,1.422
2019-03-17T01:18:40.479Z,1.404
2019-03-17T01:18:48.042Z,1.404
2019-03-17T01:18:55.221Z,1.422
2019-03-17T01:19:01.772Z,1.434
2019-03-17T01:19:08.881Z,1.428
2019-03-17T01:19:15.040Z,1.428
2019-03-17T01:19:21.456Z,1.434
2019-03-17T01:19:29.200Z,1.459
2019-03-17T01:19:36.193Z,1.459
2019-03-17T01:19:42.910Z,1.459
2019-03-17T01:19:49.340Z,1.44
2019-03-17T01:19:57.478Z,1.422
2019-03-17T01:20:14.391Z,1.404
2019-03-17T01:20:20.201Z,1.41
2019-03-17T01:20:26.752Z,1.41
2019-03-17T01:20:33.324Z,1.41
2019-03-17T01:20:39.911Z,1.41
2019-03-17T01:20:46.508Z,1.398
2019-03-17T01:20:53.043Z,1.387
2019-03-17T01:20:59.574Z,1.369
2019-03-17T01:21:09.346Z,1.381
2019-03-17T01:21:15.981Z,1.392
2019-03-17T01:21:22.456Z,1.398
2019-03-17T01:21:30.667Z,1.375
2019-03-17T01:21:37.206Z,1.369
2019-03-17T01:21:43.758Z,1.352
2019-03-17T01:21:50.427Z,1.335
2019-03-17T01:21:56.883Z,1.319
2019-03-17T01:22:03.531Z,1.341
2019-03-17T01:22:09.999Z,1.352
2019-03-17T01:22:16.580Z,1.375
2019-03-17T01:22:23.352Z,1.387
2019-03-17T01:22:29.690Z,1.392
2019-03-17T01:22:36.261Z,1.381
2019-03-17T01:22:42.868Z,1.381
2019-03-17T01:22:49.427Z,1.364
2019-03-17T01:22:55.979Z,1.352
2019-03-17T01:23:02.549Z,1.358
2019-03-17T01:23:09.166Z,1.375
2019-03-17T01:23:15.787Z,1.387
2019-03-17T01:23:22.437Z,1.398
2019-03-17T01:23:28.780Z,1.41
2019-03-17T01:23:35.376Z,1.41
2019-03-17T01:23:42.100Z,1.404
2019-03-17T01:23:51.729Z,1.434
2019-03-17T01:23:58.287Z,1.459
2019-03-17T01:24:04.883Z,1.478
2019-03-17T01:24:11.470Z,1.49
2019-03-17T01:24:18.139Z,1.484
2019-03-17T01:24:24.609Z,1.484
2019-03-17T01:24:31.164Z,1.478
2019-03-17T01:24:37.840Z,1.471
2019-03-17T01:24:44.267Z,1.471
2019-03-17T01:24:50.895Z,1.465
2019-03-17T01:24:58.406Z,1.484
2019-03-17T01:25:05.565Z,1.503
2019-03-17T01:25:12.477Z,1.51
2019-03-17T01:25:18.773Z,1.497
2019-03-17T01:25:25.318Z,1.478
2019-03-17T01:25:33.470Z,1.465
2019-03-17T01:25:43.240Z,1.44
2019-03-17T01:25:49.831Z,1.422
2019-03-17T01:25:56.451Z,1.398
2019-03-17T01:26:02.941Z,1.392
2019-03-17T01:26:09.546Z,1.398
2019-03-17T01:26:17.713Z,1.387
2019-03-17T01:26:24.356Z,1.369
2019-03-17T01:26:30.856Z,1.358
2019-03-17T01:26:37.445Z,1.347
2019-03-17T01:26:44.024Z,1.335
2019-03-17T01:26:50.535Z,1.324
2019-03-17T01:26:57.134Z,1.324
2019-03-17T01:27:03.761Z,1.341
2019-03-17T01:27:10.341Z,1.364
2019-03-17T01:27:17.900Z,1.392
2019-03-17T01:27:24.955Z,1.416
2019-03-17T01:27:31.597Z,1.422
2019-03-17T01:27:38.096Z,1.416
2019-03-17T01:27:44.720Z,1.404
2019-03-17T01:27:51.330Z,1.404
2019-03-17T01:27:57.840Z,1.422
2019-03-17T01:28:04.375Z,1.446
2019-03-17T01:28:10.960Z,1.465
2019-03-17T01:28:17.520Z,1.478
2019-03-17T01:28:24.123Z,1.497
2019-03-17T01:28:30.667Z,1.503
2019-03-17T01:28:37.223Z,1.523
2019-03-17T01:28:43.773Z,1.549
2019-03-17T01:28:50.373Z,1.563
2019-03-17T01:28:56.946Z,1.57
2019-03-17T01:29:03.533Z,1.576
2019-03-17T01:29:10.096Z,1.59
2019-03-17T01:29:16.644Z,1.604
2019-03-17T01:29:23.689Z,1.625
2019-03-17T01:29:29.792Z,1.611
2019-03-17T01:29:36.388Z,1.611
2019-03-17T01:29:46.137Z,1.583
2019-03-17T01:29:52.728Z,1.583
2019-03-17T01:29:59.300Z,1.604
2019-03-17T01:30:05.905Z,1.618
2019-03-17T01:30:12.371Z,1.633
2019-03-17T01:30:18.964Z,1.64
2019-03-17T01:30:25.624Z,1.662
2019-03-17T01:30:32.096Z,1.654
2019-03-17T01:30:38.651Z,1.669
2019-03-17T01:30:45.205Z,1.677
2019-03-17T01:30:51.764Z,1.669
2019-03-17T01:30:58.359Z,1.669
2019-03-17T01:31:04.885Z,1.662
2019-03-17T01:31:11.507Z,1.618
2019-03-17T01:31:18.043Z,1.618
2019-03-17T01:31:24.625Z,1.611
2019-03-17T01:31:31.223Z,1.604
2019-03-17T01:31:37.794Z,1.611
2019-03-17T01:31:44.369Z,1.625
2019-03-17T01:31:50.926Z,1.633
2019-03-17T01:31:57.481Z,1.647
2019-03-17T01:32:04.108Z,1.647
2019-03-17T01:32:12.282Z,1.64
2019-03-17T01:32:18.794Z,1.618
2019-03-17T01:32:28.539Z,1.625
2019-03-17T01:32:35.113Z,1.625
2019-03-17T01:32:41.740Z,1.64
2019-03-17T01:32:48.276Z,1.633
2019-03-17T01:32:54.851Z,1.633
2019-03-17T01:33:01.369Z,1.611